aviador You're here:

LFOH Decoded Metar

LE HAVRE in FRANCE
Report Time2017-08-24 08:30:00
UTC Time2017-08-24 08:52:38
Flight Rules mvfr MVFR
Wind220° at 06 kt
W.Decomp.*RWY 22: 6.0 kt HW 0.1 kt RCW
W.Rank220° ranks 3
Current wind is below 220° avg. (10.9)
Visibility9999 m
Phenomena:N/A
Clouds:Few 008 Hf
Broken 015 Hf
Broken 020 Hf
Expected CloudBase > 800 ft AGL from Temp-Dew spread
Ceiling1,500 ft
Temp17°C (ISA +3)
Dew Point15°C (88% RH)
AAT16.5°C
QNH1018 hPa
Density Alt712 ft
Elevation338 ft
Report Wrong Elevation
Raw Report
LFOH 240830Z AUTO 22006KT 9999 FEW008 BKN015 BKN020 17/15 Q1018
NOSIG=

Extra information for LFOH:More info

Metar Taf Metar & Taf Last 4 Metars F.Rules Stats Wind Profile Meteogram Temp Stats Airport Information Weather charts Add Link Nearby VenuesMetar ALERT Operation Metar Decoded Social comments